Skip to main content

Almada, P.Rainha

ID 1210773 · 38.6171, -9.2128 map

Latest reading · 2026-05-09 19:00 (Europe/Lisbon)

Temperature
16.5 °C
Humidity
83 %
Pressure
Precipitation
0.0 mm
Radiation
1,246 W/m²
Wind speed
18.7 km/h
Wind direction
S · South

24-hour history

Time (Europe/Lisbon) Temp Humidity Pressure Rain Wind Dir
2026-05-09 19:00 16.5 °C 83 % 0.0 mm 18.7 km/h S
2026-05-09 18:00 15.6 °C 89 % 0.1 mm 13.0 km/h S
2026-05-09 17:00 13.6 °C 95 % 4.5 mm 13.7 km/h SW
2026-05-09 16:00 18.8 °C 76 % 3.3 mm 17.6 km/h SW
2026-05-09 15:00 18.5 °C 76 % 0.0 mm 19.8 km/h S
2026-05-09 14:00 19.3 °C 73 % 0.0 mm 19.8 km/h S
2026-05-09 13:00 19.0 °C 72 % 0.0 mm 20.5 km/h S
2026-05-09 12:00 18.4 °C 75 % 0.0 mm 18.4 km/h S
2026-05-09 11:00 17.3 °C 80 % 0.0 mm 14.4 km/h S
2026-05-09 10:00 16.1 °C 89 % 0.0 mm 12.6 km/h S
2026-05-09 09:00 14.3 °C 96 % 0.0 mm 9.7 km/h S
2026-05-09 08:00 12.8 °C 98 % 0.1 mm 6.8 km/h SE
2026-05-09 07:00 12.3 °C 97 % 1.0 mm 2.5 km/h SE
2026-05-09 06:00 12.5 °C 97 % 6.3 mm 17.3 km/h SW
2026-05-09 05:00 12.4 °C 94 % 0.1 mm 3.2 km/h E
2026-05-09 04:00 12.9 °C 98 % 0.2 mm 14.4 km/h SE
2026-05-09 03:00 12.0 °C 99 % 4.4 mm 6.8 km/h SE
2026-05-09 02:00 11.8 °C 96 % 16.5 mm 10.1 km/h SE
2026-05-09 01:00 14.8 °C 82 % 0.8 mm 14.4 km/h SW
2026-05-09 00:00 15.2 °C 80 % 0.0 mm 23.4 km/h S
2026-05-08 23:00 15.8 °C 78 % 0.1 mm 24.5 km/h S
2026-05-08 22:00 15.6 °C 81 % 0.1 mm 18.0 km/h SE
2026-05-08 21:00 16.4 °C 76 % 0.0 mm 21.2 km/h SE
2026-05-08 20:00 16.7 °C 75 % 0.0 mm 20.9 km/h S